Nearby METAR Reports

 

KHFD - Hartford/Brainar, Connecticut, USA
Distance from station: NW 13mi, 20km
Updated: Sat, 16-Feb-2019 6:53am EST
Clear
Clear
 Wind from NW
Wind: NW 7 mph , 11 km/h
Temperature: 32°F , 0°C
Wind Chill: 25°F , -4°C
Dew Point: 16°F , -9°C
Humidity: 51%
Barometer: 29.80 inHg , 1009.1 hPa
Clouds: Clear
Visibility: 10 miles , 16 km
2019/02/16 11:53 KHFD 161153Z 32006KT 10SM CLR 00/M09 A2980 RMK AO2 SLP090 T00001089 10044 20000 51015
KSNC - Chester, Connecticut, USA
Distance from station: S 15mi, 23km
Updated: Sat, 16-Feb-2019 7:15am EST
Clear
Clear
 Wind from NW
Wind: NW 10 mph , 17 km/h
Temperature: 32°F , 0°C
Wind Chill: 24°F , -4°C
Dew Point: 16°F , -9°C
Humidity: 51%
Barometer: 29.78 inHg , 1008.5 hPa
Clouds: Clear
Visibility: 10 miles , 16 km
2019/02/16 12:15 KSNC 161215Z AUTO 32009KT 10SM CLR M00/M09 A2978 RMK AO2
 
KMMK - Meriden, Connecticut, USA
Distance from station: WSW 18mi, 30km
Updated: Sat, 16-Feb-2019 6:53am EST
Clear
Clear
 Wind from NW
Wind: NW 3 mph , 6 km/h
Temperature: 30°F , -1°C
Dew Point: 18°F , -8°C
Humidity: 59%
Barometer: 29.80 inHg , 1009.1 hPa
Clouds: Clear
Visibility: 10 miles , 16 km
2019/02/16 11:53 KMMK 161153Z AUTO 31003KT 10SM CLR M01/M08 A2980 RMK AO2 SLP092 T10061083 10044 21006 51019
KIJD - Willimantic, Connecticut, USA
Distance from station: NE 19mi, 31km
Updated: Sat, 16-Feb-2019 6:52am EST
Clear
Clear
 Wind from NW
Wind: NW 6 mph , 9 km/h
Temperature: 32°F , 0°C
Wind Chill: 26°F , -3°C
Dew Point: 16°F , -9°C
Humidity: 51%
Barometer: 29.78 inHg , 1008.5 hPa
Clouds: Clear
Visibility: 10 miles , 16 km
2019/02/16 11:52 KIJD 161152Z AUTO 31005KT 10SM CLR 00/M09 A2978 RMK AO2 SLP084 70001 T00001089 10044 20000 51017
 
KBDL - Windsor Locks, Connecticut, USA
Distance from station: NNW 25mi, 41km
Updated: Sat, 16-Feb-2019 6:51am EST
Partly cloudy
Partly cloudy
 Wind from NNW
Wind: NNW 8 mph , 13 km/h
Temperature: 32°F , 0°C
Wind Chill: 25°F , -4°C
Dew Point: 18°F , -8°C
Humidity: 55%
Barometer: 29.78 inHg , 1008.5 hPa
Clouds: Partly cloudy
Visibility: 10 miles , 16 km
Cloud details: Few Clouds 15000 ft
Partly cloudy 19000 ft
Partly cloudy 25000 ft
2019/02/16 11:51 KBDL 161151Z 34007KT 10SM FEW150 SCT190 SCT250 00/M08 A2978 RMK AO2 SLP087 4/003 70002 T00001083 10039 20000 51015
KGON - Groton/New Londo, Connecticut, USA
Distance from station: SE 29mi, 47km
Updated: Sat, 16-Feb-2019 6:56am EST
Clear
Clear
 Wind from NW
Wind: NW 9 mph , 15 km/h
Temperature: 34°F , 1°C
Wind Chill: 27°F , -3°C
Dew Point: 18°F , -8°C
Humidity: 51%
Barometer: 29.78 inHg , 1008.5 hPa
Clouds: Clear
Visibility: 10 miles , 16 km
2019/02/16 11:56 KGON 161156Z 32008KT 10SM CLR 01/M08 A2978 RMK AO2 SLP083 T00111078 10067 20011 51019
 
KHVN - New Haven/Tweed, Connecticut, USA
Distance from station: SW 30mi, 48km
Updated: Sat, 16-Feb-2019 6:53am EST
Partly cloudy
Partly cloudy
 Wind from NNW
Wind: NNW 3 mph , 6 km/h
Temperature: 36°F , 2°C
Dew Point: 19°F , -7°C
Humidity: 52%
Barometer: 29.80 inHg , 1009.1 hPa
Clouds: Partly cloudy
Visibility: 10 miles , 16 km
Cloud details: Partly cloudy 10000 ft
2019/02/16 11:53 KHVN 161153Z 33003KT 10SM SCT100 02/M07 A2980 RMK AO2 SLP090 T00171072 10067 20017 51021
KOXC - Oxford/Waterbury, Connecticut, USA
Distance from station: WSW 34mi, 55km
Updated: Sat, 16-Feb-2019 6:51am EST
Clear
Clear
 Wind from NNW
Wind: NNW 5 mph , 7 km/h
Temperature: 28°F , -2°C
Wind Chill: 22°F , -6°C
Dew Point: 18°F , -8°C
Humidity: 64%
Barometer: 29.78 inHg , 1008.5 hPa
Clouds: Clear
Visibility: 10 miles , 16 km
2019/02/16 11:51 KOXC 161151Z 33004KT 10SM CLR M02/M08 A2978 RMK AO2 SLP100 T10171078 10033 21017 51018
 
KWST - Westerly, Rhode Island, USA
Distance from station: ESE 40mi, 64km
Updated: Sat, 16-Feb-2019 6:53am EST
Clear
Clear
 Wind from varies
Wind: varies 5 mph , 7 km/h
Temperature: 36°F , 2°C
Wind Chill: 32°F , 0°C
Dew Point: 19°F , -7°C
Humidity: 52%
Barometer: 29.77 inHg , 1008.1 hPa
Clouds: Clear
Visibility: 10 miles , 16 km
2019/02/16 11:53 KWST 161153Z AUTO VRB04KT 10SM CLR 02/M07 A2977 RMK AO2 SLP082 70003 T00221072 10089 20022 51020
KBAF - Westfield, Massachusetts, USA
Distance from station: NNW 41mi, 66km
Updated: Sat, 16-Feb-2019 6:53am EST
Clear
Clear
 Wind from NNW
Wind: NNW 13 mph , 20 km/h, Gust: 18 mph , 30 km/h
Temperature: 30°F , -1°C
Wind Chill: 20°F , -7°C
Dew Point: 16°F , -9°C
Humidity: 55%
Barometer: 29.78 inHg , 1008.5 hPa
Clouds: Clear
Visibility: 10 miles , 16 km
2019/02/16 11:53 KBAF 161153Z 34011G16KT 320V020 10SM CLR M01/M09 A2978 RMK AO2 SLP088 70002 T10061089 10022 21011 51017
 
KCEF - Chicopee/Westove, Massachusetts, USA
Distance from station: N 42mi, 67km
Updated: Sat, 16-Feb-2019 6:56am EST
Partly cloudy
Partly cloudy
 Wind from N
Wind: N 9 mph , 15 km/h
Temperature: 30°F , -1°C
Wind Chill: 22°F , -6°C
Dew Point: 16°F , -9°C
Humidity: 55%
Barometer: 29.77 inHg , 1008.1 hPa
Clouds: Partly cloudy
Visibility: 10 miles , 16 km
Cloud details: Few Clouds 3900 ft
Partly cloudy 16000 ft
2019/02/16 11:56 KCEF 161156Z COR 35008KT 10SM FEW039 SCT160 M01/M09 A2977 RMK AO2A SLP089 70003 4/003 T10091086 10030 21010 52016 COR 1158
KBDR - Bridgeport, Connecticut, USA
Distance from station: SW 44mi, 72km
Updated: Sat, 16-Feb-2019 6:52am EST
Clear
Clear
 Wind from NW
Wind: NW 8 mph , 13 km/h
Temperature: 34°F , 1°C
Wind Chill: 27°F , -3°C
Dew Point: 19°F , -7°C
Humidity: 56%
Barometer: 29.81 inHg , 1009.5 hPa
Clouds: Clear
Visibility: 10 miles , 16 km
2019/02/16 11:52 KBDR 161152Z 32007KT 10SM CLR 01/M07 A2981 RMK AO2 SLP094 T00111072 10067 20011 51021
 
KHTO - East Hampton, New York, USA
Distance from station: SSE 46mi, 74km
Updated: Sat, 16-Feb-2019 7:15am EST
Mostly cloudy
Mostly cloudy
 Wind from NW
Wind: NW 5 mph , 7 km/h
Temperature: 34°F , 1°C
Wind Chill: 29°F , -2°C
Dew Point: 19°F , -7°C
Humidity: 56%
Barometer: 29.80 inHg , 1009.1 hPa
Clouds: Mostly cloudy
Visibility: 10 miles , 16 km
Cloud details: Mostly cloudy 8500 ft
2019/02/16 12:15 KHTO 161215Z AUTO 32004KT 10SM BKN085 01/M07 A2980 RMK AO2 T00101066
KMTP - Montauk, New York, USA
Distance from station: SE 47mi, 76km
Updated: Sat, 16-Feb-2019 6:54am EST

 Wind from NNW
Wind: NNW 12 mph , 19 km/h
Temperature: 36°F , 2°C
Wind Chill: 28°F , -2°C
Dew Point: 19°F , -7°C
Humidity: 52%
Barometer: 29.78 inHg , 1008.5 hPa
2019/02/16 11:54 KMTP 161154Z AUTO 33010KT 02/M07 A2978 RMK AO1 SLP085 T00221067 10061 20022 51017